All Spectrum Aviation - Van Nuys Airport - KVNY

HOME

Condor Squadron KVNY Webcam

Visit our Electronics Store

Condor Squadron Webcam - Van Nuys Airport - KVNY
Picture taken: Sat, 16 Feb 2019 00:04:27 -0800
YouTube Channel!    Latest Timelapse Movie    Full Size Image    Regular Size Image    

2019/02/16 07:51 KVNY 160751Z AUTO 00000KT 10SM FEW017 09/07 A3007 RMK AO2 SLP180 T00940067 401440078

HOME

Condor Squadron KVNY Webcam

Visit our Electronics Store